Dixie Vandal — WDC2682 — position and weather

sailwx.info

Track history (hours):
 
Tides and Currents Weather Stations Pressure Air Temp Water Temp Dewpoint Dewpoint Depression Visibility Wind Speed Wind Dir Waves Ship Positions

Dixie Vandal

Owner: Kirby Inland Marine LP, Houston, TX. More information available from US FCC via Universal Licensing System and Coast Guard Vessel Documentation Center.

Last reported at 2018-Feb-22 20:10 UTC. Time now 2018-Feb-23 12:40 UTC.
Position N 29°32' W 094°54'.

Length 113 m; draft 2.9 m.

Type: . MMSI: 366996360.

Date/timePositionNaut miles runAvg speedWind from/ knotsBaromVisibWave heightAir tempDewpointWater temp
2018-Feb-22 20:10N 29°32' W 094°54'1 5.8
2018-Feb-22 20:00N 29°33' W 094°55'3 6.0
2018-Feb-22 19:30N 29°35' W 094°56'3 6.1
2018-Feb-22 19:00N 29°38' W 094°58'3 6.2
2018-Feb-22 18:30N 29°41' W 094°59'3 5.7
2018-Feb-22 17:59N 29°43' W 095°01'4 0.1
2018-Feb-20 14:02N 29°46' W 095°05'2 0.3
2018-Feb-20 08:17N 29°45' W 095°06'0 0.0
2018-Feb-20 07:53N 29°45' W 095°06'0 0.0
2018-Feb-20 07:20N 29°45' W 095°06'0 0.0
2018-Feb-20 06:53N 29°45' W 095°06'0 0.0
2018-Feb-20 06:29N 29°45' W 095°06'0 0.0
2018-Feb-20 05:29N 29°45' W 095°06'0 0.0
2018-Feb-20 04:59N 29°45' W 095°06'0 0.0
2018-Feb-20 04:29N 29°45' W 095°06'0 0.0
2018-Feb-20 03:59N 29°45' W 095°06'0 0.0
2018-Feb-20 03:23N 29°45' W 095°06'0 0.0
2018-Feb-20 02:56N 29°45' W 095°06'0 0.0
2018-Feb-20 02:23N 29°45' W 095°06'0 0.0
2018-Feb-20 01:59N 29°45' W 095°06'1 1.1
2018-Feb-20 01:12N 29°45' W 095°06'2 5.2
2018-Feb-20 00:48N 29°44' W 095°04'3 6.5
2018-Feb-20 00:24N 29°43' W 095°01'3 7.1
2018-Feb-20 00:00N 29°41' W 094°59'4 7.4
2018-Feb-19 23:30N 29°37' W 094°57'4 7.6
2018-Feb-19 23:00N 29°34' W 094°55'4 7.3
2018-Feb-19 22:30N 29°31' W 094°53'12 6.3
2018-Feb-19 20:36N 29°20' W 094°46'1 7.6
2018-Feb-19 20:30N 29°20' W 094°47'1 0.2
2018-Feb-19 14:10N 29°19' W 094°48'0 0.6
2018-Feb-19 14:00N 29°19' W 094°48'1 0.1
2018-Feb-19 09:30N 29°19' W 094°47'0 0.0
2018-Feb-19 08:54N 29°19' W 094°47'0 0.0
2018-Feb-19 08:24N 29°19' W 094°47'0 0.0
2018-Feb-19 07:48N 29°19' W 094°47'0 0.0
2018-Feb-19 07:30N 29°19' W 094°47'0 0.0
2018-Feb-19 05:36N 29°19' W 094°47'0 0.0
2018-Feb-19 05:30N 29°19' W 094°47'0 0.0
2018-Feb-17 21:34N 29°19' W 094°47'0 2.5
2018-Feb-17 21:29N 29°19' W 094°47'0 0.0
2018-Feb-16 06:17N 29°19' W 094°47'0 0.0
2018-Feb-16 05:59N 29°19' W 094°47'0 0.0
2018-Feb-16 02:09N 29°19' W 094°47'0 0.5
2018-Feb-16 01:56N 29°19' W 094°47'0 0.0
2018-Feb-15 08:17N 29°19' W 094°47'0 0.0
2018-Feb-15 06:02N 29°19' W 094°47'0 0.0
2018-Feb-15 05:59N 29°19' W 094°47'0 0.0
2018-Feb-15 05:26N 29°19' W 094°47'0 0.0
2018-Feb-15 04:56N 29°19' W 094°47'0 0.0
2018-Feb-15 04:23N 29°19' W 094°47'0 0.0
2018-Feb-15 03:59N 29°19' W 094°47'0 0.0
2018-Feb-15 03:29N 29°19' W 094°47'1 1.4
2018-Feb-15 02:58N 29°20' W 094°47'2 4.6
2018-Feb-15 02:30N 29°22' W 094°48'9 5.4
2018-Feb-15 00:48N 29°30' W 094°52'3 5.6
2018-Feb-15 00:19N 29°32' W 094°54'2 5.8
2018-Feb-15 00:00N 29°34' W 094°55'3 6.0
2018-Feb-14 23:30N 29°36' W 094°57'3 5.9
2018-Feb-14 23:00N 29°39' W 094°58'3 6.1
2018-Feb-14 22:30N 29°42' W 094°60'5 5.4
2018-Feb-14 21:39N 29°45' W 095°04'2 5.6
2018-Feb-14 21:23N 29°46' W 095°05'1 1.4
2018-Feb-14 20:57N 29°45' W 095°06'3 2.5
2018-Feb-14 19:52N 29°44' W 095°03'0 0.0
2018-Feb-13 22:01N 29°44' W 095°03'0 1.3
2018-Feb-13 22:00N 29°44' W 095°03'0 0.0
2018-Feb-13 21:30N 29°44' W 095°03'0 0.1
2018-Feb-13 21:00N 29°44' W 095°03'0 0.0
2018-Feb-13 20:30N 29°44' W 095°03'0 0.0
2018-Feb-13 20:00N 29°44' W 095°03'0 0.0
2018-Feb-13 19:30N 29°44' W 095°03'  
Track history (hours):
 
Tides and Currents Weather Stations Pressure Air Temp Water Temp Dewpoint Dewpoint Depression Visibility Wind Speed Wind Dir Waves Ship Positions

Dixie Vandal

Owner: Kirby Inland Marine LP, Houston, TX. More information available from US FCC via Universal Licensing System and Coast Guard Vessel Documentation Center.

Last reported at 2018-Feb-22 20:10 UTC. Time now 2018-Feb-23 12:40 UTC.
Position N 29°32' W 094°54'.

Length 113 m; draft 2.9 m.

Type: . MMSI: 366996360.

Date/timePositionNaut miles runAvg speedWind from/ knotsBaromVisibWave heightAir tempDewpointWater temp
2018-Feb-22 20:10N 29°32' W 094°54'1 5.8
2018-Feb-22 20:00N 29°33' W 094°55'3 6.0
2018-Feb-22 19:30N 29°35' W 094°56'3 6.1
2018-Feb-22 19:00N 29°38' W 094°58'3 6.2
2018-Feb-22 18:30N 29°41' W 094°59'3 5.7
2018-Feb-22 17:59N 29°43' W 095°01'4 0.1
2018-Feb-20 14:02N 29°46' W 095°05'2 0.3
2018-Feb-20 08:17N 29°45' W 095°06'0 0.0
2018-Feb-20 07:53N 29°45' W 095°06'0 0.0
2018-Feb-20 07:20N 29°45' W 095°06'0 0.0
2018-Feb-20 06:53N 29°45' W 095°06'0 0.0
2018-Feb-20 06:29N 29°45' W 095°06'0 0.0
2018-Feb-20 05:29N 29°45' W 095°06'0 0.0
2018-Feb-20 04:59N 29°45' W 095°06'0 0.0
2018-Feb-20 04:29N 29°45' W 095°06'0 0.0
2018-Feb-20 03:59N 29°45' W 095°06'0 0.0
2018-Feb-20 03:23N 29°45' W 095°06'0 0.0
2018-Feb-20 02:56N 29°45' W 095°06'0 0.0
2018-Feb-20 02:23N 29°45' W 095°06'0 0.0
2018-Feb-20 01:59N 29°45' W 095°06'1 1.1
2018-Feb-20 01:12N 29°45' W 095°06'2 5.2
2018-Feb-20 00:48N 29°44' W 095°04'3 6.5
2018-Feb-20 00:24N 29°43' W 095°01'3 7.1
2018-Feb-20 00:00N 29°41' W 094°59'4 7.4
2018-Feb-19 23:30N 29°37' W 094°57'4 7.6
2018-Feb-19 23:00N 29°34' W 094°55'4 7.3
2018-Feb-19 22:30N 29°31' W 094°53'12 6.3
2018-Feb-19 20:36N 29°20' W 094°46'1 7.6
2018-Feb-19 20:30N 29°20' W 094°47'1 0.2
2018-Feb-19 14:10N 29°19' W 094°48'0 0.6
2018-Feb-19 14:00N 29°19' W 094°48'1 0.1
2018-Feb-19 09:30N 29°19' W 094°47'0 0.0
2018-Feb-19 08:54N 29°19' W 094°47'0 0.0
2018-Feb-19 08:24N 29°19' W 094°47'0 0.0
2018-Feb-19 07:48N 29°19' W 094°47'0 0.0
2018-Feb-19 07:30N 29°19' W 094°47'0 0.0
2018-Feb-19 05:36N 29°19' W 094°47'0 0.0
2018-Feb-19 05:30N 29°19' W 094°47'0 0.0
2018-Feb-17 21:34N 29°19' W 094°47'0 2.5
2018-Feb-17 21:29N 29°19' W 094°47'0 0.0
2018-Feb-16 06:17N 29°19' W 094°47'0 0.0
2018-Feb-16 05:59N 29°19' W 094°47'0 0.0
2018-Feb-16 02:09N 29°19' W 094°47'0 0.5
2018-Feb-16 01:56N 29°19' W 094°47'0 0.0
2018-Feb-15 08:17N 29°19' W 094°47'0 0.0
2018-Feb-15 06:02N 29°19' W 094°47'0 0.0
2018-Feb-15 05:59N 29°19' W 094°47'0 0.0
2018-Feb-15 05:26N 29°19' W 094°47'0 0.0
2018-Feb-15 04:56N 29°19' W 094°47'0 0.0
2018-Feb-15 04:23N 29°19' W 094°47'0 0.0
2018-Feb-15 03:59N 29°19' W 094°47'0 0.0
2018-Feb-15 03:29N 29°19' W 094°47'1 1.4
2018-Feb-15 02:58N 29°20' W 094°47'2 4.6
2018-Feb-15 02:30N 29°22' W 094°48'9 5.4
2018-Feb-15 00:48N 29°30' W 094°52'3 5.6
2018-Feb-15 00:19N 29°32' W 094°54'2 5.8
2018-Feb-15 00:00N 29°34' W 094°55'3 6.0
2018-Feb-14 23:30N 29°36' W 094°57'3 5.9
2018-Feb-14 23:00N 29°39' W 094°58'3 6.1
2018-Feb-14 22:30N 29°42' W 094°60'5 5.4
2018-Feb-14 21:39N 29°45' W 095°04'2 5.6
2018-Feb-14 21:23N 29°46' W 095°05'1 1.4
2018-Feb-14 20:57N 29°45' W 095°06'3 2.5
2018-Feb-14 19:52N 29°44' W 095°03'0 0.0
2018-Feb-13 22:01N 29°44' W 095°03'0 1.3
2018-Feb-13 22:00N 29°44' W 095°03'0 0.0
2018-Feb-13 21:30N 29°44' W 095°03'0 0.1
2018-Feb-13 21:00N 29°44' W 095°03'0 0.0
2018-Feb-13 20:30N 29°44' W 095°03'0 0.0
2018-Feb-13 20:00N 29°44' W 095°03'0 0.0
2018-Feb-13 19:30N 29°44' W 095°03'  

Dump ship's entire track history